createdAt,value
2018-11-29T00:01:58.902Z,16.44
2018-11-29T00:04:25.674Z,16.45
2018-11-29T00:06:52.307Z,16.43
2018-11-29T00:09:18.951Z,16.41
2018-11-29T00:11:45.605Z,16.40
2018-11-29T00:14:12.462Z,16.45
2018-11-29T00:16:39.100Z,16.46
2018-11-29T00:19:05.736Z,16.47
2018-11-29T00:21:32.577Z,16.26
2018-11-29T00:23:59.229Z,16.33
2018-11-29T00:26:25.885Z,16.34
2018-11-29T00:28:52.522Z,16.36
2018-11-29T00:31:19.178Z,16.37
2018-11-29T00:33:45.820Z,16.40
2018-11-29T00:36:12.466Z,16.41
2018-11-29T00:38:39.106Z,16.46
2018-11-29T00:41:05.766Z,16.50
2018-11-29T00:43:32.406Z,16.45
2018-11-29T00:45:59.047Z,16.41
2018-11-29T00:48:25.691Z,16.44
2018-11-29T00:50:52.337Z,16.46
2018-11-29T00:53:18.982Z,16.50
2018-11-29T00:55:45.633Z,16.47
2018-11-29T00:58:12.345Z,16.57
2018-11-29T01:00:39.008Z,16.53
2018-11-29T01:03:05.654Z,16.50
2018-11-29T01:05:32.352Z,16.38
2018-11-29T01:07:58.994Z,16.39
2018-11-29T01:10:25.642Z,16.47
2018-11-29T01:12:52.286Z,16.44
2018-11-29T01:15:18.937Z,16.41
2018-11-29T01:17:45.578Z,16.45
2018-11-29T01:20:12.245Z,16.47
2018-11-29T01:22:38.990Z,16.48
2018-11-29T01:25:05.626Z,16.51
2018-11-29T01:27:32.344Z,16.50
2018-11-29T01:29:58.997Z,16.46
2018-11-29T01:32:25.642Z,16.44
2018-11-29T01:34:52.301Z,16.42
2018-11-29T01:37:18.945Z,16.51
2018-11-29T01:39:45.596Z,16.52
2018-11-29T01:42:12.227Z,16.53
2018-11-29T01:44:38.881Z,16.48
2018-11-29T01:47:05.518Z,16.50
2018-11-29T01:49:32.178Z,16.45
2018-11-29T01:51:58.819Z,16.46
2018-11-29T01:54:25.468Z,16.48
2018-11-29T01:56:52.170Z,16.45
2018-11-29T01:59:18.822Z,16.44
2018-11-29T02:01:45.461Z,16.53
2018-11-29T02:04:12.106Z,16.53
2018-11-29T02:06:38.752Z,16.53
2018-11-29T02:09:05.411Z,16.53
2018-11-29T02:11:32.047Z,16.54
2018-11-29T02:13:58.692Z,16.54
2018-11-29T02:16:25.337Z,16.55
2018-11-29T02:18:51.989Z,16.55
2018-11-29T02:21:18.625Z,16.60
2018-11-29T02:23:46.622Z,16.62
2018-11-29T02:26:11.954Z,16.63
2018-11-29T02:28:38.724Z,16.56
2018-11-29T02:31:08.481Z,16.55
2018-11-29T02:33:35.138Z,16.52
2018-11-29T02:36:01.836Z,16.50
2018-11-29T02:38:28.472Z,16.51
2018-11-29T02:40:55.174Z,16.54
2018-11-29T02:43:21.814Z,16.53
2018-11-29T02:45:48.504Z,16.50
2018-11-29T02:48:15.143Z,16.59
2018-11-29T02:50:41.799Z,16.55
2018-11-29T02:53:08.435Z,16.57
2018-11-29T02:55:35.123Z,16.57
2018-11-29T02:58:01.762Z,16.62
2018-11-29T03:00:28.587Z,16.70
2018-11-29T03:02:55.234Z,16.60
2018-11-29T03:05:21.877Z,16.59
2018-11-29T03:07:48.532Z,16.62
2018-11-29T03:10:15.174Z,16.57
2018-11-29T03:12:41.833Z,16.55
2018-11-29T03:15:08.461Z,16.57
2018-11-29T03:17:35.152Z,16.52
2018-11-29T03:20:01.797Z,16.35
2018-11-29T03:22:28.441Z,16.41
2018-11-29T03:24:55.097Z,16.49
2018-11-29T03:27:21.742Z,16.46
2018-11-29T03:29:48.452Z,16.47
2018-11-29T03:32:15.095Z,16.51
2018-11-29T03:34:41.737Z,16.52
2018-11-29T03:37:08.381Z,16.56
2018-11-29T03:39:36.081Z,16.56
2018-11-29T03:42:01.679Z,16.48
2018-11-29T03:44:28.365Z,16.47
2018-11-29T03:46:55.000Z,16.52
2018-11-29T03:49:21.660Z,16.49
2018-11-29T03:51:48.298Z,16.52
2018-11-29T03:54:14.934Z,16.55
2018-11-29T03:56:41.593Z,16.53
2018-11-29T03:59:08.231Z,16.53
2018-11-29T04:01:34.881Z,16.49
2018-11-29T04:04:01.541Z,16.53
2018-11-29T04:06:28.172Z,16.50
2018-11-29T04:08:54.840Z,16.49
2018-11-29T04:11:21.484Z,16.50
2018-11-29T04:13:48.122Z,16.52
2018-11-29T04:16:14.761Z,16.56
2018-11-29T04:18:41.418Z,16.66
2018-11-29T04:21:08.049Z,17.00
2018-11-29T04:23:34.700Z,17.38
2018-11-29T04:26:01.358Z,17.39
2018-11-29T04:28:28.010Z,17.68
2018-11-29T04:30:54.705Z,17.33
2018-11-29T04:33:21.350Z,17.63
2018-11-29T04:35:47.985Z,17.94
2018-11-29T04:38:14.675Z,17.48
2018-11-29T04:40:41.319Z,17.26
2018-11-29T04:43:07.973Z,17.60
2018-11-29T04:45:34.623Z,17.57
2018-11-29T04:48:02.695Z,17.61
2018-11-29T04:50:27.917Z,17.54
2018-11-29T04:52:54.630Z,17.19
2018-11-29T04:55:21.399Z,16.85
2018-11-29T04:57:48.046Z,16.66
2018-11-29T05:00:14.691Z,16.93
2018-11-29T05:02:41.386Z,16.86
2018-11-29T05:05:08.035Z,16.87
2018-11-29T05:07:34.781Z,17.04
2018-11-29T05:10:01.477Z,17.08
2018-11-29T05:12:28.114Z,17.11
2018-11-29T05:14:54.770Z,16.96
2018-11-29T05:17:21.422Z,17.21
2018-11-29T05:19:48.070Z,17.29
2018-11-29T05:22:14.766Z,17.75
2018-11-29T05:24:41.410Z,17.54
2018-11-29T05:27:08.042Z,17.57
2018-11-29T05:29:34.697Z,17.57
2018-11-29T05:32:01.334Z,17.55
2018-11-29T05:34:27.973Z,17.50
2018-11-29T05:36:54.622Z,17.38
2018-11-29T05:39:21.318Z,17.51
2018-11-29T05:41:47.958Z,17.62
2018-11-29T05:44:14.609Z,17.69
2018-11-29T05:46:41.258Z,17.71
2018-11-29T05:49:07.944Z,17.80
2018-11-29T05:51:34.640Z,17.91
2018-11-29T05:54:01.379Z,17.91
2018-11-29T05:56:28.016Z,17.83
2018-11-29T05:58:54.688Z,17.87
2018-11-29T06:01:21.381Z,17.78
2018-11-29T06:03:48.034Z,17.81
2018-11-29T06:06:14.677Z,17.58
2018-11-29T06:08:41.322Z,17.71
2018-11-29T06:11:07.961Z,17.72
2018-11-29T06:13:34.622Z,17.65
2018-11-29T06:16:01.270Z,17.67
2018-11-29T06:18:27.914Z,17.62
2018-11-29T06:20:54.559Z,17.48
2018-11-29T06:23:21.249Z,17.51
2018-11-29T06:25:47.886Z,17.57
2018-11-29T06:28:14.581Z,17.67
2018-11-29T06:30:41.222Z,17.59
2018-11-29T06:33:07.882Z,17.60
2018-11-29T06:35:34.534Z,17.54
2018-11-29T06:38:01.178Z,17.39
2018-11-29T06:40:27.841Z,17.43
2018-11-29T06:42:56.781Z,17.45
2018-11-29T06:45:24.784Z,17.57
2018-11-29T06:47:50.060Z,17.70
2018-11-29T06:50:16.713Z,17.81
2018-11-29T06:52:43.360Z,17.85
2018-11-29T06:55:10.013Z,17.75
2018-11-29T06:57:36.653Z,17.77
2018-11-29T07:00:03.361Z,17.91
2018-11-29T07:02:30.044Z,17.80
2018-11-29T07:04:56.698Z,17.82
2018-11-29T07:07:23.339Z,17.92
2018-11-29T07:09:49.978Z,17.90
2018-11-29T07:12:16.696Z,17.80
2018-11-29T07:14:43.335Z,17.79
2018-11-29T07:17:09.978Z,17.94
2018-11-29T07:19:36.679Z,17.89
2018-11-29T07:22:05.225Z,18.06
2018-11-29T07:24:30.034Z,18.21
2018-11-29T07:26:56.673Z,18.23
2018-11-29T07:29:23.381Z,18.09
2018-11-29T07:31:50.071Z,17.91
2018-11-29T07:34:16.729Z,17.99
2018-11-29T07:36:43.401Z,18.20
2018-11-29T07:39:10.118Z,17.99
2018-11-29T07:41:36.756Z,18.16
2018-11-29T07:44:03.434Z,18.04
2018-11-29T07:46:30.081Z,17.97
2018-11-29T07:48:56.737Z,17.72
2018-11-29T07:51:23.391Z,17.97
2018-11-29T07:53:50.080Z,18.13
2018-11-29T07:56:16.717Z,17.94
2018-11-29T07:58:43.450Z,18.18
2018-11-29T08:01:10.229Z,18.13
2018-11-29T08:03:36.876Z,17.93
2018-11-29T08:06:03.570Z,18.07
2018-11-29T08:08:30.226Z,18.11
2018-11-29T08:10:58.839Z,18.03
2018-11-29T08:13:23.556Z,17.88
2018-11-29T08:15:52.527Z,17.99
2018-11-29T08:18:16.917Z,17.91
2018-11-29T08:20:43.548Z,17.93
2018-11-29T08:23:10.198Z,17.93
2018-11-29T08:25:36.859Z,17.92
2018-11-29T08:28:03.599Z,17.92
2018-11-29T08:30:30.299Z,17.69
2018-11-29T08:32:57.017Z,17.86
2018-11-29T08:35:23.665Z,18.07
2018-11-29T08:37:50.340Z,17.99
2018-11-29T08:40:17.042Z,17.96
2018-11-29T08:42:43.718Z,18.13
2018-11-29T08:45:10.375Z,18.00
2018-11-29T08:47:37.167Z,18.01
2018-11-29T08:50:03.866Z,18.11
2018-11-29T08:52:30.540Z,17.97
2018-11-29T08:54:57.210Z,17.72
2018-11-29T08:57:23.915Z,17.52
2018-11-29T08:59:50.657Z,17.52
2018-11-29T09:02:17.390Z,17.43
2018-11-29T09:04:45.399Z,17.53
2018-11-29T09:07:10.768Z,17.28
2018-11-29T09:09:37.414Z,17.26
2018-11-29T09:12:04.128Z,17.37
2018-11-29T09:14:31.335Z,17.46
2018-11-29T09:16:58.145Z,17.43
2018-11-29T09:19:24.834Z,17.50
2018-11-29T09:21:51.523Z,17.50
2018-11-29T09:24:18.510Z,17.52
2018-11-29T09:26:45.209Z,17.56
2018-11-29T09:29:11.943Z,17.29
2018-11-29T09:31:38.596Z,17.54
2018-11-29T09:34:05.278Z,17.30
2018-11-29T09:36:31.914Z,17.40
2018-11-29T09:38:58.606Z,16.90
2018-11-29T09:41:25.259Z,17.10
2018-11-29T09:43:51.918Z,17.16
2018-11-29T09:46:18.719Z,17.22
2018-11-29T09:48:45.371Z,17.36
2018-11-29T09:51:12.011Z,17.32
2018-11-29T09:53:39.736Z,17.46
2018-11-29T09:56:06.438Z,17.27
2018-11-29T09:58:33.091Z,16.96
2018-11-29T10:00:59.790Z,17.20
2018-11-29T10:03:26.441Z,17.17
2018-11-29T10:05:53.083Z,17.36
2018-11-29T10:08:25.919Z,17.21
2018-11-29T10:10:46.399Z,17.14
2018-11-29T10:13:13.093Z,16.70
2018-11-29T10:15:39.733Z,16.63
2018-11-29T10:18:06.390Z,16.61
2018-11-29T10:20:33.035Z,16.44
2018-11-29T10:23:02.519Z,16.62
2018-11-29T10:25:29.173Z,16.43
2018-11-29T10:27:55.892Z,16.50
2018-11-29T10:30:22.537Z,16.78
2018-11-29T10:32:49.314Z,16.70
2018-11-29T10:35:16.019Z,16.90
2018-11-29T10:37:42.656Z,16.82
2018-11-29T10:40:09.296Z,16.81
2018-11-29T10:42:36.068Z,17.00
2018-11-29T10:45:02.758Z,17.07
2018-11-29T10:47:29.512Z,17.29
2018-11-29T10:49:56.209Z,17.33
2018-11-29T10:52:22.917Z,17.16
2018-11-29T10:54:49.584Z,17.42
2018-11-29T10:57:16.234Z,17.56
2018-11-29T10:59:42.907Z,17.35
2018-11-29T11:02:09.587Z,17.21
2018-11-29T11:04:36.283Z,17.28
2018-11-29T11:07:03.068Z,17.18
2018-11-29T11:09:29.736Z,17.25
2018-11-29T11:11:56.450Z,17.16
2018-11-29T11:14:23.082Z,17.33
2018-11-29T11:16:49.742Z,17.48
2018-11-29T11:19:16.474Z,17.19
2018-11-29T11:21:43.186Z,17.04
2018-11-29T11:24:10.204Z,17.81
2018-11-29T11:26:36.838Z,17.47
2018-11-29T11:29:03.633Z,17.42
2018-11-29T11:31:31.251Z,17.49
2018-11-29T11:33:57.160Z,17.55
2018-11-29T11:36:23.802Z,17.91
2018-11-29T11:38:50.529Z,17.65
2018-11-29T11:41:20.153Z,17.68
2018-11-29T11:43:46.798Z,17.70
2018-11-29T11:46:14.582Z,17.59
2018-11-29T11:48:41.321Z,17.62
2018-11-29T11:51:07.985Z,17.53
2018-11-29T11:53:34.653Z,17.48
2018-11-29T11:56:01.454Z,17.35
2018-11-29T11:58:28.152Z,17.51
2018-11-29T12:00:54.933Z,17.38
2018-11-29T12:03:21.641Z,17.37
2018-11-29T12:05:48.295Z,17.38
2018-11-29T12:08:14.947Z,17.21
2018-11-29T12:10:41.639Z,17.26
2018-11-29T12:13:08.342Z,17.15
2018-11-29T12:15:34.987Z,17.14
2018-11-29T12:18:01.637Z,17.12
2018-11-29T12:20:28.364Z,17.06
2018-11-29T12:22:55.069Z,17.16
2018-11-29T12:25:21.715Z,17.15
2018-11-29T12:27:48.398Z,17.12
2018-11-29T12:30:15.069Z,17.08
2018-11-29T12:32:41.716Z,17.14
2018-11-29T12:35:08.576Z,17.03
2018-11-29T12:37:35.237Z,17.17
2018-11-29T12:40:01.877Z,17.23
2018-11-29T12:42:28.572Z,17.21
2018-11-29T12:44:55.227Z,17.50
2018-11-29T12:47:22.009Z,17.60
2018-11-29T12:49:48.662Z,17.38
2018-11-29T12:52:15.429Z,17.24
2018-11-29T12:54:42.134Z,17.08
2018-11-29T12:57:09.850Z,17.18
2018-11-29T12:59:36.504Z,17.11
2018-11-29T13:02:03.225Z,17.10
2018-11-29T13:04:30.280Z,17.18
2018-11-29T13:06:56.931Z,17.13
2018-11-29T13:09:23.601Z,16.94
2018-11-29T13:11:50.269Z,16.94
2018-11-29T13:14:17.106Z,16.84
2018-11-29T13:16:43.692Z,16.65
2018-11-29T13:19:10.345Z,16.55
2018-11-29T13:21:36.997Z,16.86
2018-11-29T13:24:03.748Z,16.88
2018-11-29T13:26:30.308Z,16.69
2018-11-29T13:28:56.961Z,16.79
2018-11-29T13:31:23.628Z,16.69
2018-11-29T13:33:50.316Z,17.00
2018-11-29T13:36:16.930Z,17.11
2018-11-29T13:38:43.574Z,16.71
2018-11-29T13:41:10.232Z,16.75
2018-11-29T13:43:36.901Z,16.77
2018-11-29T13:46:03.558Z,16.66
2018-11-29T13:48:31.271Z,16.62
2018-11-29T13:50:57.976Z,16.48
2018-11-29T13:53:24.637Z,16.41
2018-11-29T13:55:51.292Z,16.11
2018-11-29T13:58:19.156Z,15.99
2018-11-29T14:00:45.897Z,16.05
2018-11-29T14:03:12.630Z,16.06
2018-11-29T14:05:39.336Z,16.01
2018-11-29T14:08:05.984Z,15.91
2018-11-29T14:10:32.702Z,15.82
2018-11-29T14:12:59.377Z,15.78
2018-11-29T14:15:26.042Z,15.78
2018-11-29T14:17:52.711Z,15.71
2018-11-29T14:20:19.387Z,15.77
2018-11-29T14:22:46.035Z,15.77
2018-11-29T14:25:12.695Z,15.74
2018-11-29T14:27:39.356Z,15.45
2018-11-29T14:30:06.001Z,15.33
2018-11-29T14:32:32.679Z,15.43
2018-11-29T14:34:59.449Z,15.44
2018-11-29T14:37:26.241Z,15.41
2018-11-29T14:39:52.882Z,15.40
2018-11-29T14:42:19.751Z,15.37
2018-11-29T14:44:46.427Z,15.35
2018-11-29T14:47:13.101Z,15.34
2018-11-29T14:49:39.747Z,15.21
2018-11-29T14:52:08.093Z,15.24
2018-11-29T14:54:33.052Z,15.27
2018-11-29T14:56:59.699Z,15.31
2018-11-29T14:59:27.472Z,15.28
2018-11-29T15:01:54.143Z,15.26
2018-11-29T15:04:20.823Z,15.20
2018-11-29T15:06:47.453Z,15.12
2018-11-29T15:09:14.524Z,15.17
2018-11-29T15:11:41.240Z,15.41
2018-11-29T15:14:07.961Z,15.55
2018-11-29T15:16:34.621Z,15.64
2018-11-29T15:19:01.280Z,15.61
2018-11-29T15:21:27.998Z,15.75
2018-11-29T15:23:54.703Z,15.78
2018-11-29T15:26:21.403Z,15.83
2018-11-29T15:28:48.055Z,15.82
2018-11-29T15:31:14.727Z,15.79
2018-11-29T15:33:41.435Z,15.82
2018-11-29T15:36:08.152Z,15.97
2018-11-29T15:38:34.843Z,15.80
2018-11-29T15:41:01.492Z,15.77
2018-11-29T15:43:28.148Z,15.91
2018-11-29T15:45:57.490Z,15.73
2018-11-29T15:48:24.187Z,15.82
2018-11-29T15:50:50.983Z,15.78
2018-11-29T15:53:17.626Z,15.74
2018-11-29T15:55:44.269Z,15.76
2018-11-29T15:58:10.970Z,15.68
2018-11-29T16:00:37.621Z,15.65
2018-11-29T16:03:04.278Z,15.83
2018-11-29T16:05:30.930Z,15.59
2018-11-29T16:07:57.736Z,15.54
2018-11-29T16:10:24.453Z,15.35
2018-11-29T16:12:51.091Z,15.34
2018-11-29T16:15:17.729Z,15.72
2018-11-29T16:17:44.402Z,15.83
2018-11-29T16:20:11.560Z,16.10
2018-11-29T16:22:38.252Z,15.81
2018-11-29T16:25:04.894Z,15.87
2018-11-29T16:27:31.609Z,15.92
2018-11-29T16:29:58.257Z,15.96
2018-11-29T16:32:24.959Z,15.96
2018-11-29T16:34:51.646Z,15.84
2018-11-29T16:37:18.285Z,15.82
2018-11-29T16:39:44.955Z,15.77
2018-11-29T16:42:12.073Z,15.72
2018-11-29T16:44:38.787Z,15.88
2018-11-29T16:47:05.481Z,15.94
2018-11-29T16:49:32.116Z,15.84
2018-11-29T16:51:58.754Z,15.82
2018-11-29T16:54:25.458Z,15.76
2018-11-29T16:56:52.100Z,15.79
2018-11-29T16:59:18.803Z,15.74
2018-11-29T17:01:45.496Z,15.73
2018-11-29T17:04:12.148Z,15.71
2018-11-29T17:06:38.849Z,15.69
2018-11-29T17:09:05.605Z,15.61
2018-11-29T17:11:32.292Z,15.58
2018-11-29T17:13:58.937Z,15.61
2018-11-29T17:16:25.598Z,15.63
2018-11-29T17:18:52.253Z,15.60
2018-11-29T17:21:18.890Z,15.46
2018-11-29T17:23:45.545Z,15.56
2018-11-29T17:26:12.191Z,15.46
2018-11-29T17:28:38.829Z,15.44
2018-11-29T17:31:05.468Z,15.28
2018-11-29T17:33:32.124Z,15.41
2018-11-29T17:35:58.770Z,15.28
2018-11-29T17:38:25.426Z,15.31
2018-11-29T17:40:52.081Z,15.35
2018-11-29T17:43:18.804Z,15.29
2018-11-29T17:45:45.462Z,15.22
2018-11-29T17:48:12.118Z,15.10
2018-11-29T17:50:38.756Z,15.11
2018-11-29T17:53:05.408Z,15.06
2018-11-29T17:55:32.069Z,15.01
2018-11-29T17:57:58.714Z,15.04
2018-11-29T18:00:25.411Z,15.01
2018-11-29T18:02:52.028Z,14.98
2018-11-29T18:05:18.685Z,14.95
2018-11-29T18:07:45.320Z,14.95
2018-11-29T18:10:11.994Z,14.93
2018-11-29T18:12:38.636Z,14.90
2018-11-29T18:15:05.295Z,14.87
2018-11-29T18:17:31.936Z,14.89
2018-11-29T18:19:58.589Z,14.83
2018-11-29T18:22:25.245Z,14.86
2018-11-29T18:24:51.913Z,14.88
2018-11-29T18:27:18.568Z,14.84
2018-11-29T18:29:45.242Z,14.76
2018-11-29T18:32:14.715Z,14.70
2018-11-29T18:34:41.366Z,14.73
2018-11-29T18:37:08.023Z,14.66
2018-11-29T18:39:34.659Z,14.70
2018-11-29T18:42:01.309Z,14.70
2018-11-29T18:44:27.970Z,14.63
2018-11-29T18:46:54.629Z,14.71
2018-11-29T18:49:21.278Z,14.64
2018-11-29T18:51:47.927Z,14.68
2018-11-29T18:54:14.582Z,14.64
2018-11-29T18:56:41.307Z,14.57
2018-11-29T18:59:07.950Z,14.64
2018-11-29T19:01:34.601Z,14.60
2018-11-29T19:04:01.242Z,14.53
2018-11-29T19:06:29.230Z,14.45
2018-11-29T19:08:54.579Z,14.53
2018-11-29T19:11:21.350Z,14.54
2018-11-29T19:13:47.901Z,14.55
2018-11-29T19:16:14.554Z,14.54
2018-11-29T19:18:41.218Z,14.54
2018-11-29T19:21:07.865Z,14.50
2018-11-29T19:23:35.267Z,14.48
2018-11-29T19:26:01.248Z,14.46
2018-11-29T19:28:27.903Z,14.46
2018-11-29T19:30:54.593Z,14.42
2018-11-29T19:33:21.341Z,14.35
2018-11-29T19:35:47.997Z,14.42
2018-11-29T19:38:14.689Z,14.41
2018-11-29T19:40:41.364Z,14.38
2018-11-29T19:43:07.976Z,14.33
2018-11-29T19:45:34.616Z,14.29
2018-11-29T19:48:01.254Z,14.25
2018-11-29T19:50:27.950Z,14.24
2018-11-29T19:52:54.592Z,14.28
2018-11-29T19:55:21.243Z,14.24
2018-11-29T19:57:47.881Z,14.19
2018-11-29T20:00:14.521Z,14.18
2018-11-29T20:02:41.186Z,14.17
2018-11-29T20:05:07.831Z,14.16
2018-11-29T20:07:34.478Z,14.15
2018-11-29T20:10:01.118Z,14.16
2018-11-29T20:12:27.757Z,14.04
2018-11-29T20:14:54.418Z,14.09
2018-11-29T20:17:21.061Z,14.15
2018-11-29T20:19:47.718Z,14.13
2018-11-29T20:22:14.354Z,14.10
2018-11-29T20:24:41.004Z,14.03
2018-11-29T20:27:07.639Z,14.04
2018-11-29T20:29:34.303Z,14.01
2018-11-29T20:32:00.960Z,14.01
2018-11-29T20:34:27.927Z,13.99
2018-11-29T20:36:54.571Z,13.97
2018-11-29T20:39:21.228Z,13.93
2018-11-29T20:41:47.877Z,13.96
2018-11-29T20:44:14.535Z,13.94
2018-11-29T20:46:41.172Z,13.92
2018-11-29T20:49:07.861Z,13.91
2018-11-29T20:51:34.503Z,13.87
2018-11-29T20:54:01.155Z,13.88
2018-11-29T20:56:27.874Z,13.86
2018-11-29T20:58:54.515Z,13.88
2018-11-29T21:01:21.188Z,13.85
2018-11-29T21:03:47.792Z,13.79
2018-11-29T21:06:14.446Z,13.76
2018-11-29T21:08:41.139Z,13.82
2018-11-29T21:11:07.776Z,13.78
2018-11-29T21:13:34.420Z,13.75
2018-11-29T21:16:01.122Z,13.75
2018-11-29T21:18:27.766Z,13.77
2018-11-29T21:20:54.424Z,13.79
2018-11-29T21:23:21.061Z,13.84
2018-11-29T21:25:47.702Z,13.77
2018-11-29T21:28:14.412Z,13.75
2018-11-29T21:30:41.080Z,13.74
2018-11-29T21:33:07.712Z,13.71
2018-11-29T21:35:34.404Z,13.68
2018-11-29T21:38:01.049Z,13.65
2018-11-29T21:40:27.685Z,13.64
2018-11-29T21:42:54.338Z,13.62
2018-11-29T21:45:21.000Z,13.66
2018-11-29T21:47:47.645Z,13.62
2018-11-29T21:50:14.292Z,13.62
2018-11-29T21:52:40.930Z,13.63
2018-11-29T21:55:07.605Z,13.62
2018-11-29T21:57:34.324Z,13.59
2018-11-29T22:00:00.973Z,13.56
2018-11-29T22:02:27.626Z,13.54
2018-11-29T22:04:54.273Z,13.55
2018-11-29T22:07:23.640Z,13.53
2018-11-29T22:09:50.294Z,13.52
2018-11-29T22:12:16.929Z,13.53
2018-11-29T22:14:43.630Z,13.48
2018-11-29T22:17:10.265Z,13.52
2018-11-29T22:19:36.921Z,13.48
2018-11-29T22:22:03.573Z,13.47
2018-11-29T22:24:30.221Z,13.41
2018-11-29T22:26:56.914Z,13.39
2018-11-29T22:29:23.556Z,13.42
2018-11-29T22:31:50.217Z,13.44
2018-11-29T22:34:16.900Z,13.46
2018-11-29T22:36:43.561Z,13.37
2018-11-29T22:39:10.241Z,13.34
2018-11-29T22:41:36.890Z,13.37
2018-11-29T22:44:03.576Z,13.32
2018-11-29T22:46:30.214Z,13.31
2018-11-29T22:48:56.852Z,13.32
2018-11-29T22:51:23.520Z,13.27
2018-11-29T22:53:50.159Z,13.30
2018-11-29T22:56:16.897Z,13.23
2018-11-29T22:58:43.499Z,13.22
2018-11-29T23:01:10.279Z,13.24
2018-11-29T23:03:36.910Z,13.20
2018-11-29T23:06:03.622Z,13.28
2018-11-29T23:08:30.277Z,13.19
2018-11-29T23:10:56.933Z,13.16
2018-11-29T23:13:23.570Z,13.17
2018-11-29T23:15:50.261Z,13.13
2018-11-29T23:18:16.906Z,13.09
2018-11-29T23:20:43.546Z,13.08
2018-11-29T23:23:10.201Z,13.11
2018-11-29T23:25:36.841Z,13.04
2018-11-29T23:28:03.531Z,12.97
2018-11-29T23:30:30.231Z,12.95
2018-11-29T23:32:56.890Z,13.02
2018-11-29T23:35:23.536Z,13.03
2018-11-29T23:37:50.181Z,12.96
2018-11-29T23:40:16.824Z,12.91
2018-11-29T23:42:43.472Z,12.88
2018-11-29T23:45:10.116Z,12.90
2018-11-29T23:47:36.801Z,12.84
2018-11-29T23:50:03.437Z,12.86
2018-11-29T23:52:30.089Z,12.85
2018-11-29T23:54:56.733Z,12.82
2018-11-29T23:57:23.384Z,12.80
2018-11-29T23:59:50.024Z,12.74
